• Join FlightAware (Why Join?)
  • Login
  • US Flag 
06:29AM EDT


 

Airport Tracker/Info


-or-


 

Live Flight TrackerFlight Track Log ✈ SWA1729 ✈ 28-Apr-2013 ✈ KHOU - KELP

Flight Track Log - Related Links

Times and Time Zones

All times are in EDT time to prevent confusion due to time zone crossing. See the SWA1729 flight status page for this flight to view local times or setup timezone preferences in your user account.

Time Position Orientation Groundspeed Altitude Reporting Facility
EDT Latitude Longitude Course Direction KTS MPH feet Rate Location/Type
10:04PM 29.5756 -95.3228 207° Southwest 236 272 3,400  Level Houston Center
10:05PM 29.5514 -95.3369 207° Southwest 242 278 4,400 3,360 Climbing Houston Center
10:05PM 29.5069 -95.3767 218° Southwest 288 331 7,200 3,540 Climbing Houston Center
10:06PM 29.5067 -95.4003 269° West 292 336 8,000 3,240 Climbing Houston Center
10:06PM 29.5325 -95.4503 301° West 292 336 10,200 2,880 Climbing Houston Center
10:07PM 29.5483 -95.4808 301° West 292 336 10,900 2,400 Climbing Houston Center
10:08PM 29.5969 -95.5739 301° West 331 381 13,800 2,880 Climbing Houston Center
10:09PM 29.8766 -95.9130 291° West  Level FlightAware Approximate
10:09PM 29.6483 -95.6700 302° West 347 399 16,800  Level Houston Center
10:10PM 29.6983 -95.7644 301° West 348 400 19,900 2,460 Climbing Houston Center
10:11PM 29.7500 -95.8592 302° West 348 400 21,900 2,040 Climbing Houston Center
10:12PM 29.8044 -95.9622 301° West 371 427 24,100 2,040 Climbing Houston Center
10:13PM 29.8619 -96.0697 302° West 380 437 26,100 1,800 Climbing Houston Center
10:14PM 29.9181 -96.1739 302° West 383 441 27,800 1,980 Climbing Houston Center
10:15PM 29.9428 -96.3186 281° West 392 451 30,200 2,280 Climbing Houston Center
10:16PM 29.9486 -96.4347 273° West 369 425 32,500 1,800 Climbing Houston Center
10:17PM 29.9547 -96.5464 274° West 354 407 33,900 1,320 Climbing Houston Center
10:18PM 29.9753 -96.6558 282° West 352 405 35,300 960 Climbing Houston Center
10:19PM 29.9986 -96.7639 284° West 351 404 35,900 300 Climbing Houston Center
10:20PM 30.0214 -96.8761 283° West 359 413 36,000  Climbing Houston Center
10:21PM 30.0578 -96.9836 291° West 362 417 36,000  Level Houston Center
10:22PM 30.1042 -97.0986 295° West 361 415 36,000  Level Houston Center
10:23PM 30.1464 -97.2058 295° West 362 417 36,000  Level Houston Center
10:24PM 30.1872 -97.3114 294° West 357 411 36,000  Level Houston Center
10:25PM 30.2294 -97.4175 295° West 358 412 36,000  Level Houston Center
10:26PM 30.2694 -97.5219 294° West 353 406 36,000  Level Houston Center
10:27PM 30.3106 -97.6250 295° West 350 403 36,000  Level Houston Center
10:28PM 30.3522 -97.7303 295° West 353 406 36,000  Level Houston Center
10:29PM 30.3936 -97.8372 294° West 356 410 36,000  Level Houston Center
10:30PM 30.4353 -97.9442 294° West 359 413 36,000  Level Houston Center
10:31PM 30.4775 -98.0528 294° West 364 419 36,000  Level Houston Center
10:32PM 30.5203 -98.1647 294° West 373 429 36,000  Level Houston Center
10:33PM 30.5631 -98.2758 294° West 373 429 36,000  Level Houston Center
10:34PM 30.6064 -98.3889 294° West 379 436 36,000  Level Houston Center
10:35PM 30.6494 -98.5022 294° West 379 436 36,000 -60 Level Houston Center
10:36PM 30.6956 -98.6128 296° West 377 434 35,900 -600 Descending Houston Center
10:37PM 30.7736 -98.6994 316° Northwest 383 441 34,900 -960 Descending Houston Center
10:38PM 30.8503 -98.7786 318° Northwest 368 423 34,000 -480 Descending Houston Center
10:39PM 30.9272 -98.8567 319° Northwest 364 419 34,000  Level Houston Center
10:40PM 31.0064 -98.9344 320° Northwest 367 422 34,000  Level Houston Center
10:41PM 31.0856 -99.0133 320° Northwest 369 425 34,000  Level Houston Center
10:42PM 31.1664 -99.0936 320° Northwest 376 433 34,000  Level Houston Center
10:43PM 31.2406 -99.1828 314° West 365 420 34,000  Level Houston Center
10:44PM 31.2528 -99.2994 277° West 362 417 34,000  Level Houston Center
10:45PM 31.2658 -99.4161 277° West 364 419 34,000  Level Houston Center
10:46PM 31.2775 -99.5350 277° West 368 423 34,000  Level Houston Center
10:47PM 31.2908 -99.6567 277° West 377 434 34,000  Level Houston Center
10:48PM 31.3039 -99.7792 277° West 380 437 34,000  Level Houston Center
10:49PM 31.3150 -99.9017 276° West 382 440 34,000  Level Houston Center
10:50PM 31.3283 -100.0242 277° West 379 436 34,000  Level Houston Center
10:51PM 31.3425 -100.1692 277° West 378 435 34,000  Level Houston Center
10:53PM 31.3556 -100.2950 277° West 388 447 34,000 -60 Level Houston Center
10:54PM 31.3678 -100.4217 276° West 394 453 33,900  Descending Houston Center
10:54PM 31.3706 -100.4547 276° West 394 453 34,000  Climbing Fort Worth Center
10:55PM 31.3822 -100.5814 276° West 394 453 33,900 -60 Descending Fort Worth Center
10:56PM 31.3956 -100.7133 277° West 389 448 33,900  Level Fort Worth Center
10:57PM 31.4086 -100.8403 277° West 389 448 34,000  Climbing Fort Worth Center
10:58PM 31.4178 -100.9672 275° West 389 448 34,000  Level Fort Worth Center
10:59PM 31.4306 -101.0992 277° West 394 453 34,000  Level Fort Worth Center
11:00PM 31.4436 -101.2289 277° West 399 459 34,000 420 Level Fort Worth Center
11:01PM 31.4583 -101.3608 277° West 409 471 34,900 960 Climbing Fort Worth Center
11:02PM 31.4686 -101.4953 275° West 409 471 36,000 540 Climbing Fort Worth Center
11:03PM 31.4808 -101.6247 276° West 409 471 36,000  Level Fort Worth Center
11:04PM 31.4917 -101.7422 276° West 409 471 36,000  Level Fort Worth Center
11:05PM 31.5036 -101.8744 276° West 409 471 36,000  Level Fort Worth Center
11:06PM 31.5069 -101.9725 272° West 426 490 36,000  Level Albuquerque Center
11:07PM 31.5197 -102.1050 276° West 414 476 36,000  Level Albuquerque Center
11:08PM 31.5319 -102.2478 276° West 409 471 36,000  Level Albuquerque Center
11:09PM 31.5433 -102.3803 276° West 413 475 36,000  Level Albuquerque Center
11:10PM 31.5539 -102.5150 275° West 418 481 36,000  Level Albuquerque Center
11:11PM 31.5639 -102.6506 275° West 421 484 36,000  Level Albuquerque Center
11:12PM 31.5750 -102.8144 275° West 423 487 36,000  Level Albuquerque Center
11:13PM 31.5769 -102.9517 271° West 423 487 36,000 -60 Level Albuquerque Center
11:14PM 31.5775 -103.0881 270° West 421 484 35,900  Descending Albuquerque Center
11:15PM 31.5797 -103.2239 271° West 420 483 36,000  Climbing Albuquerque Center
11:16PM 31.5814 -103.3600 271° West 419 482 36,000  Level Albuquerque Center
11:17PM 31.5817 -103.4922 270° West 417 480 36,000  Level Albuquerque Center
11:18PM 31.5842 -103.6283 271° West 417 480 36,000  Level Albuquerque Center
11:19PM 31.5842 -103.7714 270° West 413 475 36,000 -60 Level Albuquerque Center
11:20PM 31.5864 -103.9050 271° West 411 473 35,900  Descending Albuquerque Center
11:21PM 31.5878 -104.0361 271° West 406 467 36,000 -540 Climbing Albuquerque Center
11:22PM 31.5883 -104.1675 270° West 406 467 34,900 -1,080 Descending Albuquerque Center
11:23PM 31.5900 -104.3253 271° West 406 467 33,900 -480 Descending Albuquerque Center
11:24PM 31.5906 -104.4572 270° West 407 468 34,000  Climbing Albuquerque Center
11:25PM 31.5906 -104.5917 270° West 412 474 34,000 -540 Level Albuquerque Center
11:26PM 31.5908 -104.7294 270° West 422 486 32,900 -1,980 Descending Albuquerque Center
11:27PM 31.5911 -104.8675 270° West 425 489 30,000 -2,640 Descending Albuquerque Center
11:28PM 31.5917 -105.0006 270° West 414 476 27,600 -2,400 Descending Albuquerque Center
11:29PM 31.5914 -105.1272 270° West 397 457 25,200 -2,340 Descending Albuquerque Center
11:30PM 31.5903 -105.2519 269° West 387 445 22,900 -2,460 Descending Albuquerque Center
11:31PM 31.5886 -105.3675 269° West 371 427 20,900 -2,700 Descending Albuquerque Center
11:31PM 31.5897 -105.3981 272° West 381 438 20,200 -2,400 Descending Albuquerque Center
11:32PM 31.5889 -105.4925 269° West 383 441 18,500 -2,280 Descending Albuquerque Center
11:32PM 31.5892 -105.5236 271° West 387 445 17,900 -2,340 Descending Albuquerque Center
11:33PM 31.5889 -105.6172 270° West 387 445 16,200 -2,280 Descending Albuquerque Center
11:33PM 31.5881 -105.6464 268° West 381 438 15,600 -2,280 Descending Albuquerque Center
11:34PM 31.5875 -105.7350 270° West 363 418 13,900 -2,280 Descending Albuquerque Center
11:34PM 31.5875 -105.7628 270° West 363 418 13,300 -2,100 Descending Albuquerque Center
11:35PM 31.6075 -105.8422 286° West 335 386 11,800 -2,100 Descending Albuquerque Center
11:35PM 31.6192 -105.8631 303° West 335 386 11,200 -1,740 Descending Albuquerque Center
11:36PM 31.6542 -105.9328 301° West 322 371 10,100 -1,200 Descending Albuquerque Center
11:36PM 31.6642 -105.9525 301° West 317 365 10,000 -1,380 Descending Albuquerque Center
11:37PM 31.6981 -106.0192 301° West 283 326 8,700 -1,500 Descending Albuquerque Center
11:37PM 31.7039 -106.0331 296° West 289 333 8,500 -720 Descending Albuquerque Center
11:38PM 31.7358 -106.0969 300° West 268 308 8,000 -540 Descending Albuquerque Center
11:38PM 31.7419 -106.1067 306° West 265 305 8,000 -540 Level Albuquerque Center
11:39PM 31.7839 -106.1500 319° Northwest 244 281 7,500 -900 Descending Albuquerque Center
11:39PM 31.8033 -106.1711 317° Northwest 248 285 7,100 -1,020 Descending Albuquerque Center
11:40PM 31.8289 -106.2086 309° West 239 275 6,500 -1,020 Descending Albuquerque Center
11:40PM 31.8356 -106.2342 287° West 235 270 6,100 -1,020 Descending Albuquerque Center
11:41PM 31.8475 -106.2764 288° West 211 243 5,500 -900 Descending Albuquerque Center
11:41PM 31.8522 -106.2994 284° West 208 239 5,200 -720 Descending Albuquerque Center
11:42PM 31.8489 -106.3311 263° West 152 175 4,800 -720 Descending Albuquerque Center
11:42PM 31.8422 -106.3433 237° Southwest 150 173 4,500 -600 Descending Albuquerque Center
11:43PM 31.8181 -106.3747 228° Southwest 134 154 4,000 -540 Descending Albuquerque Center
11:45PM 31.8072 -106.3764 270° West  Level Estimated
11:52PM 31.8072 -106.3764 270° West  Level Estimated
11:53PM 31.8072 -106.3764 270° West  Level Estimated
11:54PM 31.8072 -106.3764 270° West  Level Estimated
11:55PM 31.8072 -106.3764 270° West  Level Estimated